Time;durP1;ratioP1;P1;durP2;ratioP2;P2;SDS_P1;SDS_P2;PMS_P1;PMS_P2;Temp;Humidity;BMP_temperature;BMP_pressure;BME280_temperature;BME280_humidity;BME280_pressure;Samples;Min_cycle;Max_cycle;Signal;HPM_P1;HPM_P2
2021/08/19 00:00:44;;;;;;;2.05;0.90;;;;;;;17.04;58.95;100861.81;2603451;54;20038;31
2021/08/19 00:03:13;;;;;;;2.25;0.90;;;;;;;16.93;59.08;100853.53;2622323;36;20085;31
2021/08/19 00:05:42;;;;;;;2.47;0.90;;;;;;;17.02;59.33;100874.22;2603680;54;20022;31
2021/08/19 00:08:12;;;;;;;1.52;0.70;;;;;;;16.98;59.24;100872.63;2622352;36;20022;31
2021/08/19 00:10:42;;;;;;;1.50;0.80;;;;;;;16.93;59.81;100869.34;2624074;36;20773;31
2021/08/19 00:13:12;;;;;;;2.67;1.20;;;;;;;16.76;59.91;100847.25;2622489;36;19982;31
2021/08/19 00:15:42;;;;;;;3.10;1.10;;;;;;;16.76;59.72;100857.81;2622720;36;20786;31
2021/08/19 00:18:10;;;;;;;0.95;0.50;;;;;;;16.66;59.71;100843.28;2622495;36;20277;31
2021/08/19 00:23:08;;;;;;;1.60;0.70;;;;;;;16.69;60.09;100861.63;2623195;36;21537;31
2021/08/19 00:28:05;;;;;;;2.40;1.00;;;;;;;16.55;59.92;100842.94;2604629;54;20256;31
2021/08/19 00:33:03;;;;;;;1.80;0.90;;;;;;;16.37;59.98;100822.66;2656370;36;20872;31
2021/08/19 00:35:33;;;;;;;2.67;1.00;;;;;;;16.33;59.95;100828.09;2623349;36;20317;31
2021/08/19 00:38:04;;;;;;;3.33;1.20;;;;;;;16.30;60.31;100828.22;2622973;36;20023;31
2021/08/19 00:40:33;;;;;;;2.17;1.10;;;;;;;16.20;60.39;100816.38;2623164;36;20039;31
2021/08/19 00:43:06;;;;;;;2.05;0.90;;;;;;;16.32;60.14;100838.69;2604484;46;20922;31
2021/08/19 00:45:34;;;;;;;2.70;1.20;;;;;;;16.27;60.63;100843.28;2624150;36;20034;31
2021/08/19 00:48:03;;;;;;;3.20;1.13;;;;;;;16.19;60.56;100835.75;2622898;36;20077;31
2021/08/19 00:53:01;;;;;;;4.10;1.50;;;;;;;16.10;61.19;100825.59;2603963;47;20030;31
2021/08/19 00:55:30;;;;;;;2.92;1.33;;;;;;;15.94;61.28;100808.75;2623131;36;20045;31
2021/08/19 00:58:00;;;;;;;2.35;1.10;;;;;;;16.11;61.37;100837.00;2604446;47;20074;31
2021/08/19 01:03:00;;;;;;;2.95;1.20;;;;;;;16.06;62.07;100821.38;2604482;54;20019;31
2021/08/19 01:05:31;;;;;;;1.98;0.95;;;;;;;16.15;62.06;100833.31;2622773;36;22365;31
2021/08/19 01:08:01;;;;;;;5.53;1.50;;;;;;;16.11;62.51;100824.66;2622818;36;19941;31
2021/08/19 01:10:31;;;;;;;4.47;1.42;;;;;;;16.12;62.08;100815.88;2604583;46;20044;31
2021/08/19 01:13:01;;;;;;;3.53;1.27;;;;;;;16.11;61.88;100813.28;2628134;36;22157;31
2021/08/19 01:18:13;;;;;;;2.55;0.90;;;;;;;16.19;62.54;100819.94;2609875;54;20369;31
2021/08/19 01:20:41;;;;;;;2.33;1.13;;;;;;;16.14;62.44;100803.47;2626948;36;20026;31
2021/08/19 01:23:09;;;;;;;2.90;1.00;;;;;;;16.17;62.84;100802.47;2609049;46;20034;31
2021/08/19 01:25:39;;;;;;;4.40;1.70;;;;;;;16.28;62.57;100806.34;2610623;46;20070;31
2021/08/19 01:28:07;;;;;;;3.40;1.30;;;;;;;16.14;62.94;100790.31;2627560;36;19942;31
2021/08/19 01:30:37;;;;;;;5.78;1.83;;;;;;;16.25;63.65;100801.22;2610613;46;20026;31
2021/08/19 01:35:37;;;;;;;2.00;1.10;;;;;;;16.23;62.81;100789.91;2627103;36;20030;31
2021/08/19 01:38:05;;;;;;;2.75;1.45;;;;;;;16.21;63.05;100775.91;2607932;54;20057;31
2021/08/19 01:40:35;;;;;;;3.57;1.30;;;;;;;16.30;63.02;100788.69;2608361;46;20927;31
2021/08/19 01:43:09;;;;;;;2.70;1.20;;;;;;;16.53;63.01;100813.16;2626893;36;21015;31
2021/08/19 01:45:37;;;;;;;1.95;1.00;;;;;;;16.45;63.13;100805.59;2627243;36;20034;31
2021/08/19 01:48:07;;;;;;;2.60;0.90;;;;;;;16.38;63.22;100783.09;2626940;36;20034;31
2021/08/19 01:50:35;;;;;;;3.33;1.55;;;;;;;16.49;62.84;100790.50;2608120;54;20060;31
2021/08/19 01:53:04;;;;;;;3.88;1.75;;;;;;;16.43;63.34;100774.97;2607810;54;20855;31
2021/08/19 01:55:32;;;;;;;4.15;1.50;;;;;;;16.57;63.28;100796.25;2608344;54;20781;31
2021/08/19 01:58:02;;;;;;;2.88;1.40;;;;;;;16.67;63.39;100804.59;2626820;36;20101;31
2021/08/19 02:00:30;;;;;;;3.58;1.65;;;;;;;16.59;63.55;100790.00;2608409;54;20859;31
2021/08/19 02:03:01;;;;;;;2.10;0.93;;;;;;;16.68;62.97;100795.78;2607788;54;20026;31
2021/08/19 02:05:29;;;;;;;2.00;1.10;;;;;;;16.64;63.15;100781.88;2627099;36;20025;31
2021/08/19 02:07:59;;;;;;;2.17;0.90;;;;;;;16.54;63.02;100759.50;2608072;46;20018;31
2021/08/19 02:12:59;;;;;;;2.20;1.05;;;;;;;16.73;63.01;100781.50;2627141;36;20814;31
2021/08/19 02:15:29;;;;;;;2.45;1.00;;;;;;;16.70;63.09;100773.69;2626807;36;20087;31
2021/08/19 02:17:57;;;;;;;1.60;0.90;;;;;;;16.61;63.36;100763.56;2608157;46;20065;31
2021/08/19 02:22:59;;;;;;;3.75;1.10;;;;;;;16.82;62.97;100788.94;2610300;54;20951;31
2021/08/19 02:25:27;;;;;;;2.35;1.10;;;;;;;16.65;63.48;100759.84;2630291;36;20072;31
2021/08/19 02:27:58;;;;;;;1.77;0.88;;;;;;;16.74;63.05;100766.53;2612730;46;20097;31
2021/08/19 02:30:29;;;;;;;2.47;1.00;;;;;;;16.82;63.09;100767.00;2627582;36;20033;31
2021/08/19 02:33:01;;;;;;;1.85;1.00;;;;;;;16.72;62.84;100745.47;2622257;36;20061;31
2021/08/19 02:35:32;;;;;;;2.03;0.83;;;;;;;16.91;62.99;100781.53;2621507;36;20045;31
2021/08/19 02:38:04;;;;;;;1.38;0.88;;;;;;;16.90;63.43;100766.66;2619036;36;20035;31
2021/08/19 02:40:36;;;;;;;3.60;1.10;;;;;;;16.92;63.37;100767.41;2619038;36;20078;31
2021/08/19 02:43:08;;;;;;;2.65;1.00;;;;;;;16.93;62.75;100762.09;2622914;36;21053;31
2021/08/19 02:45:38;;;;;;;3.72;1.23;;;;;;;16.77;63.18;100735.56;2627264;36;20782;31
2021/08/19 02:48:08;;;;;;;1.45;0.73;;;;;;;16.88;63.29;100750.00;2624436;36;20258;31
2021/08/19 02:50:36;;;;;;;2.45;1.05;;;;;;;16.80;63.39;100731.94;2622845;36;20050;31
2021/08/19 02:53:04;;;;;;;2.78;1.40;;;;;;;16.80;63.22;100722.25;2603894;47;20035;31
2021/08/19 02:55:32;;;;;;;2.08;1.08;;;;;;;16.84;63.41;100728.22;2604033;47;20981;31
2021/08/19 02:58:02;;;;;;;2.78;1.23;;;;;;;16.97;63.58;100742.50;2605720;46;20026;31
2021/08/19 03:00:32;;;;;;;2.83;1.20;;;;;;;16.96;63.61;100742.59;2626734;36;20038;31
2021/08/19 03:03:02;;;;;;;1.98;0.90;;;;;;;17.01;63.42;100740.59;2628130;36;21194;31
2021/08/19 03:05:33;;;;;;;6.45;1.40;;;;;;;16.90;63.50;100712.09;2623772;36;20041;31
2021/08/19 03:08:01;;;;;;;2.17;0.93;;;;;;;16.97;63.42;100723.19;2622486;36;20069;31
2021/08/19 03:10:31;;;;;;;2.25;1.00;;;;;;;16.88;63.08;100703.41;2603556;54;20078;31
2021/08/19 03:12:59;;;;;;;2.13;1.02;;;;;;;17.00;63.22;100728.34;2623672;36;20065;31
2021/08/19 03:15:27;;;;;;;3.05;1.10;;;;;;;16.85;63.57;100701.78;2605055;54;20066;31
2021/08/19 03:17:57;;;;;;;1.73;0.80;;;;;;;16.92;63.26;100696.19;2603824;54;20855;31
2021/08/19 03:20:27;;;;;;;2.05;1.10;;;;;;;17.00;63.04;100710.72;2610182;36;19931;31
2021/08/19 03:22:58;;;;;;;1.13;0.60;;;;;;;17.03;63.59;100709.69;2626662;36;20035;31
2021/08/19 03:25:28;;;;;;;2.25;0.90;;;;;;;16.98;63.74;100693.25;2604023;54;20111;31
2021/08/19 03:28:02;;;;;;;1.90;0.93;;;;;;;16.99;63.65;100697.63;2604776;54;20076;31
2021/08/19 03:30:32;;;;;;;1.45;0.90;;;;;;;16.92;63.22;100688.28;2622745;36;20022;31
2021/08/19 03:33:05;;;;;;;1.83;0.90;;;;;;;17.05;63.60;100692.88;2622705;36;20073;31
2021/08/19 03:35:35;;;;;;;1.10;0.60;;;;;;;17.04;63.68;100703.53;2624390;36;20824;31
2021/08/19 03:38:05;;;;;;;1.67;0.70;;;;;;;17.06;63.49;100691.09;2622815;36;20266;31
2021/08/19 03:40:36;;;;;;;1.23;0.70;;;;;;;16.91;63.43;100660.19;2623597;36;20089;31
2021/08/19 03:43:04;;;;;;;1.15;0.60;;;;;;;16.90;63.79;100650.59;2606456;47;20071;31
2021/08/19 03:45:31;;;;;;;1.27;0.70;;;;;;;17.08;63.83;100676.03;2604337;47;20022;31
2021/08/19 03:48:00;;;;;;;1.10;0.60;;;;;;;17.08;64.04;100673.38;2604437;54;20023;31
2021/08/19 03:50:28;;;;;;;1.45;0.60;;;;;;;17.05;63.71;100670.94;2624950;36;20026;31
2021/08/19 03:52:56;;;;;;;1.43;0.80;;;;;;;17.06;63.83;100670.84;2618542;36;20076;31
2021/08/19 03:55:25;;;;;;;0.75;0.70;;;;;;;16.95;64.16;100652.06;2622799;36;20239;31
2021/08/19 03:57:55;;;;;;;1.50;0.70;;;;;;;17.11;64.02;100670.59;2607853;54;20101;31
2021/08/19 04:00:26;;;;;;;1.38;0.60;;;;;;;17.05;64.08;100658.59;2623076;36;20070;31
2021/08/19 04:02:53;;;;;;;1.13;0.57;;;;;;;16.94;64.42;100642.44;2606475;46;20078;31
2021/08/19 04:07:52;;;;;;;1.30;0.50;;;;;;;17.11;64.13;100663.53;2608906;46;20026;31
2021/08/19 04:10:22;;;;;;;1.42;0.60;;;;;;;16.96;64.12;100643.22;2622466;36;20251;31
2021/08/19 04:12:50;;;;;;;1.50;0.80;;;;;;;17.00;64.15;100649.19;2622725;36;20054;31
2021/08/19 04:15:20;;;;;;;0.93;0.50;;;;;;;16.98;64.16;100641.38;2622427;36;19939;31
2021/08/19 04:20:16;;;;;;;2.10;0.55;;;;;;;17.10;64.24;100655.72;2623202;36;20034;31
2021/08/19 04:25:14;;;;;;;0.40;0.30;;;;;;;17.12;64.32;100653.84;2603762;54;20866;31
2021/08/19 04:27:45;;;;;;;1.40;0.85;;;;;;;17.19;64.56;100670.25;2627660;36;19961;31
2021/08/19 04:30:14;;;;;;;1.20;0.65;;;;;;;17.10;64.15;100650.44;2622824;36;20019;31
2021/08/19 04:32:43;;;;;;;1.13;0.68;;;;;;;17.14;64.40;100657.28;2622881;36;20021;31
2021/08/19 04:35:13;;;;;;;1.03;0.60;;;;;;;17.06;64.58;100640.97;2622565;36;20932;31
2021/08/19 04:37:43;;;;;;;0.82;0.50;;;;;;;17.05;64.54;100636.63;2622084;36;20023;31
2021/08/19 04:40:13;;;;;;;0.88;0.55;;;;;;;17.01;64.44;100629.78;2607752;47;20030;31
2021/08/19 04:42:42;;;;;;;1.10;0.68;;;;;;;17.14;64.69;100656.44;2622885;36;20137;31
2021/08/19 04:45:14;;;;;;;1.57;0.70;;;;;;;17.21;64.80;100652.53;2622503;36;20050;31
2021/08/19 04:47:42;;;;;;;1.15;0.65;;;;;;;17.15;64.90;100642.28;2637205;36;20858;31
2021/08/19 04:50:13;;;;;;;0.90;0.55;;;;;;;17.15;65.41;100642.28;2622575;36;20019;31
2021/08/19 04:52:41;;;;;;;1.10;0.70;;;;;;;17.01;65.27;100625.38;2623074;36;20038;31
2021/08/19 04:55:09;;;;;;;2.25;0.88;;;;;;;17.13;65.22;100642.34;2604282;54;20030;31
2021/08/19 04:57:39;;;;;;;1.23;0.73;;;;;;;17.21;64.92;100653.38;2604240;54;20934;31
2021/08/19 05:00:09;;;;;;;2.05;0.90;;;;;;;17.18;65.25;100650.88;2622480;36;20821;31
2021/08/19 05:02:38;;;;;;;1.70;1.00;;;;;;;17.20;64.96;100649.03;2622919;36;20094;31
2021/08/19 05:05:09;;;;;;;1.30;0.70;;;;;;;17.16;64.98;100638.72;2622882;36;20038;31
2021/08/19 05:07:40;;;;;;;1.65;1.00;;;;;;;17.03;65.20;100617.38;2623461;36;20946;31
2021/08/19 05:10:10;;;;;;;2.47;1.20;;;;;;;17.19;65.42;100644.69;2605611;47;19934;31
2021/08/19 05:12:41;;;;;;;3.08;1.30;;;;;;;17.14;65.41;100628.25;2604228;54;20034;31
2021/08/19 05:15:11;;;;;;;1.88;1.10;;;;;;;17.08;64.96;100621.50;2622720;36;20033;31
2021/08/19 05:17:42;;;;;;;3.67;1.38;;;;;;;17.08;65.21;100610.06;2603816;47;20046;31
2021/08/19 05:20:10;;;;;;;2.90;1.45;;;;;;;17.05;65.54;100604.97;2608662;54;20014;31
2021/08/19 05:22:41;;;;;;;3.40;1.50;;;;;;;17.17;65.40;100619.31;2623383;36;20866;31
2021/08/19 05:25:11;;;;;;;2.22;1.10;;;;;;;17.25;65.39;100632.97;2631956;36;20022;31
2021/08/19 05:27:39;;;;;;;3.17;1.50;;;;;;;17.07;65.21;100608.38;2603684;47;20026;31
2021/08/19 05:30:08;;;;;;;;;;;;;;;17.27;64.05;100626.66;2605275;54;20049;31
2021/08/19 05:32:38;;;;;;;2.13;1.15;;;;;;;17.22;65.24;100626.06;2623327;36;19938;31
2021/08/19 05:35:07;;;;;;;1.85;1.15;;;;;;;17.06;65.54;100598.75;2622973;36;20102;31
2021/08/19 05:37:36;;;;;;;3.77;1.40;;;;;;;17.15;65.63;100611.47;2604024;54;20766;31
2021/08/19 05:40:04;;;;;;;1.70;0.90;;;;;;;17.18;65.32;100613.94;2623105;36;20099;31
2021/08/19 05:45:01;;;;;;;2.72;1.10;;;;;;;17.19;65.63;100618.31;2606289;47;20840;31
2021/08/19 05:47:29;;;;;;;2.53;1.30;;;;;;;17.18;65.90;100611.31;2603579;54;20035;31
2021/08/19 05:49:59;;;;;;;2.20;1.10;;;;;;;17.24;65.81;100626.00;2605990;54;20069;31
2021/08/19 05:52:31;;;;;;;3.10;1.40;;;;;;;17.24;65.50;100616.28;2622236;36;20820;31
2021/08/19 05:55:02;;;;;;;2.75;1.30;;;;;;;17.20;66.08;100605.97;2622105;36;20940;31
2021/08/19 05:57:30;;;;;;;3.45;1.60;;;;;;;17.16;66.50;100602.63;2609458;39;21073;31
2021/08/19 06:02:28;;;;;;;3.20;1.50;;;;;;;17.26;66.33;100613.56;2603410;47;20053;31
2021/08/19 06:04:59;;;;;;;3.17;0.93;;;;;;;17.24;66.15;100605.72;2623326;36;20057;31
2021/08/19 06:07:28;;;;;;;2.50;1.15;;;;;;;17.17;66.56;100606.13;2625202;36;20230;31
2021/08/19 06:09:58;;;;;;;3.30;1.58;;;;;;;17.08;66.94;100574.00;2624975;36;21639;31
2021/08/19 06:12:28;;;;;;;2.50;1.30;;;;;;;17.12;67.12;100582.59;2624930;36;19942;31
2021/08/19 06:14:56;;;;;;;2.60;1.37;;;;;;;17.16;67.21;100592.06;2626093;36;20235;31
2021/08/19 06:17:24;;;;;;;2.95;1.13;;;;;;;17.24;67.11;100605.72;2623183;36;20884;31
2021/08/19 06:22:23;;;;;;;2.90;1.50;;;;;;;17.17;67.57;100587.63;2605520;47;20736;31
2021/08/19 06:24:50;;;;;;;4.28;1.50;;;;;;;17.18;67.37;100584.91;2605388;54;20842;31
2021/08/19 06:27:17;;;;;;;2.27;1.17;;;;;;;17.25;67.85;100594.25;2605052;54;20029;31
2021/08/19 06:29:48;;;;;;;3.00;1.40;;;;;;;17.16;67.56;100576.25;2605128;46;19935;31
2021/08/19 06:32:16;;;;;;;2.80;1.30;;;;;;;17.13;67.49;100571.09;2630602;36;20062;31
2021/08/19 06:34:46;;;;;;;2.35;1.25;;;;;;;17.14;67.08;100572.00;2625873;36;20023;31
2021/08/19 06:37:14;;;;;;;3.13;1.25;;;;;;;17.26;67.79;100585.38;2624240;36;20034;31
2021/08/19 06:39:44;;;;;;;2.90;1.40;;;;;;;17.13;67.45;100560.56;2626948;36;20023;31
2021/08/19 06:42:13;;;;;;;2.10;1.00;;;;;;;17.11;67.47;100562.44;2614539;54;20311;31
2021/08/19 06:44:43;;;;;;;2.67;1.10;;;;;;;17.30;67.36;100592.22;2605728;54;20861;31
2021/08/19 06:47:11;;;;;;;2.63;1.38;;;;;;;17.20;67.64;100577.78;2606783;46;20018;31
2021/08/19 06:49:41;;;;;;;2.70;1.40;;;;;;;17.28;67.70;100586.13;2604696;46;20046;31
2021/08/19 06:52:09;;;;;;;3.00;1.50;;;;;;;17.35;67.64;100597.25;2623013;36;20034;31
2021/08/19 06:54:39;;;;;;;;;;;;;;;17.45;66.32;100600.25;2605009;46;20027;31
2021/08/19 06:57:09;;;;;;;2.10;1.30;;;;;;;17.25;67.13;100570.50;2623113;36;21128;31
2021/08/19 06:59:37;;;;;;;3.33;1.40;;;;;;;17.33;67.22;100573.56;2623623;36;20056;31
2021/08/19 07:02:07;;;;;;;2.97;1.20;;;;;;;17.37;67.15;100579.53;2623967;36;20046;31
2021/08/19 07:04:36;;;;;;;2.50;1.00;;;;;;;17.30;67.35;100568.47;2625990;36;20772;31
2021/08/19 07:07:06;;;;;;;3.03;1.30;;;;;;;17.47;67.38;100590.47;2604370;47;20083;31
2021/08/19 07:09:33;;;;;;;3.63;1.45;;;;;;;17.38;67.83;100579.44;2623368;36;19960;31
2021/08/19 07:12:02;;;;;;;3.13;1.30;;;;;;;17.49;67.70;100588.63;2604807;47;20931;31
2021/08/19 07:14:30;;;;;;;2.95;1.60;;;;;;;17.52;67.92;100591.06;2611990;54;20018;31
2021/08/19 07:17:00;;;;;;;3.50;1.58;;;;;;;17.50;68.32;100585.03;2606453;54;20018;31
2021/08/19 07:19:30;;;;;;;2.15;1.13;;;;;;;17.63;67.85;100591.34;2629403;36;20046;31
2021/08/19 07:22:00;;;;;;;2.97;1.40;;;;;;;17.58;68.05;100572.25;2624156;36;20030;31
2021/08/19 07:24:30;;;;;;;2.55;1.10;;;;;;;17.62;67.96;100576.44;2616782;47;20046;31
2021/08/19 07:27:00;;;;;;;1.60;0.90;;;;;;;17.56;67.93;100563.56;2605620;47;20033;31
2021/08/19 07:29:28;;;;;;;1.83;0.95;;;;;;;17.54;68.10;100552.25;2614832;54;20776;31
2021/08/19 07:31:56;;;;;;;2.92;1.35;;;;;;;17.65;68.31;100568.38;2613548;54;21078;31
2021/08/19 07:36:56;;;;;;;1.80;1.00;;;;;;;17.79;67.77;100571.16;2616855;54;20025;31
2021/08/19 07:39:23;;;;;;;1.40;0.80;;;;;;;17.75;67.88;100559.03;2608468;46;20038;-75
2021/08/19 07:41:53;;;;;;;3.63;1.77;;;;;;;18.03;68.26;100589.22;2614533;54;20034;31
2021/08/19 07:44:23;;;;;;;2.88;1.40;;;;;;;17.93;67.74;100569.50;2605494;54;20958;31
2021/08/19 07:46:50;;;;;;;2.33;1.40;;;;;;;17.98;68.47;100575.41;2631069;54;20035;-77
2021/08/19 07:49:20;;;;;;;1.85;0.95;;;;;;;18.10;68.34;100583.50;2607464;54;21119;31
2021/08/19 07:51:49;;;;;;;2.53;1.25;;;;;;;18.06;68.10;100573.19;2632098;36;22424;31
2021/08/19 07:54:22;;;;;;;2.17;1.00;;;;;;;18.21;67.53;100590.00;2627487;36;20055;-75
2021/08/19 07:56:52;;;;;;;3.25;1.50;;;;;;;18.18;68.11;100591.00;2609244;54;20030;31
2021/08/19 07:59:19;;;;;;;2.30;1.20;;;;;;;18.15;68.52;100589.41;2607848;54;20076;31
2021/08/19 08:01:50;;;;;;;;;;;;;;;18.29;66.94;100591.25;2625443;36;20030;31
2021/08/19 08:04:20;;;;;;;2.55;1.20;;;;;;;18.24;68.20;100585.34;2606486;54;19966;31
2021/08/19 08:06:48;;;;;;;4.07;1.73;;;;;;;18.10;68.16;100554.44;2643509;39;22409;31
2021/08/19 08:09:18;;;;;;;2.53;1.05;;;;;;;18.20;68.32;100565.34;2605992;54;20254;31
2021/08/19 08:11:48;;;;;;;2.78;1.45;;;;;;;18.25;68.18;100573.00;2606073;47;20019;31
2021/08/19 08:14:16;;;;;;;2.65;0.90;;;;;;;18.37;68.08;100578.44;2627856;36;20026;31
2021/08/19 08:16:44;;;;;;;2.17;0.90;;;;;;;18.33;68.32;100574.28;2608837;46;20057;31
2021/08/19 08:19:16;;;;;;;2.55;1.20;;;;;;;18.38;68.10;100572.22;2604705;54;20082;31
2021/08/19 08:21:46;;;;;;;2.88;1.20;;;;;;;18.50;68.44;100586.53;2607572;46;20026;31
2021/08/19 08:24:15;;;;;;;1.67;0.85;;;;;;;18.50;68.37;100583.03;2642532;36;20042;31
2021/08/19 08:26:45;;;;;;;3.05;1.20;;;;;;;18.47;68.61;100567.34;2624092;36;20022;31
2021/08/19 08:29:13;;;;;;;2.05;0.95;;;;;;;18.58;68.59;100581.66;2631953;36;20736;-76
2021/08/19 08:31:41;;;;;;;2.20;1.00;;;;;;;18.57;68.94;100573.81;2629689;36;20062;31
2021/08/19 08:34:12;;;;;;;2.38;1.30;;;;;;;18.70;68.88;100595.13;2628707;36;20769;31
2021/08/19 08:36:40;;;;;;;1.50;0.80;;;;;;;18.69;68.88;100585.50;2631388;54;20007;-77
2021/08/19 08:39:10;;;;;;;2.97;0.90;;;;;;;18.62;68.91;100575.25;2624011;36;20074;31
2021/08/19 08:41:40;;;;;;;1.27;0.70;;;;;;;18.69;68.74;100574.91;2649069;36;20026;-78
2021/08/19 08:44:10;;;;;;;2.20;1.10;;;;;;;18.80;68.95;100597.16;2608451;54;20843;31
2021/08/19 08:46:39;;;;;;;4.47;1.57;;;;;;;18.78;69.02;100583.16;2622217;54;20106;31
2021/08/19 08:49:06;;;;;;;2.47;1.10;;;;;;;18.80;68.92;100591.84;2630981;54;20034;-77
2021/08/19 08:51:36;;;;;;;2.75;1.35;;;;;;;18.83;68.83;100591.69;2626311;54;20030;31
2021/08/19 08:54:08;;;;;;;2.20;1.00;;;;;;;18.79;68.64;100590.16;2610844;47;21021;31
2021/08/19 08:56:36;;;;;;;3.03;1.43;;;;;;;18.69;69.08;100566.97;2613775;54;20836;31
2021/08/19 08:59:05;;;;;;;2.63;1.13;;;;;;;18.84;69.08;100588.09;2630966;54;20238;-78
2021/08/19 09:01:35;;;;;;;1.95;1.00;;;;;;;18.88;68.73;100596.72;2608641;54;20023;31
2021/08/19 09:04:06;;;;;;;1.83;1.00;;;;;;;18.78;68.72;100577.03;2628668;46;20035;-77
2021/08/19 09:06:39;;;;;;;1.65;0.85;;;;;;;18.87;68.91;100587.06;2610034;46;20030;31
2021/08/19 09:09:23;;;;;;;2.13;0.95;;;;;;;18.88;68.13;100589.63;2610000;54;20046;31
2021/08/19 09:11:59;;;;;;;1.30;0.73;;;;;;;18.89;69.15;100593.97;2633154;36;20935;31
2021/08/19 09:14:31;;;;;;;1.63;0.93;;;;;;;18.86;68.87;100596.81;2604362;54;20027;31
2021/08/19 09:17:03;;;;;;;1.85;0.95;;;;;;;18.92;68.65;100601.72;2609125;54;20023;31
2021/08/19 09:19:35;;;;;;;1.10;0.70;;;;;;;18.81;68.78;100571.56;2603698;54;20065;31
2021/08/19 09:22:05;;;;;;;1.33;0.77;;;;;;;18.97;69.04;100597.97;2604892;54;20070;31
2021/08/19 09:24:39;;;;;;;1.65;1.00;;;;;;;19.02;68.64;100601.19;2617864;54;20022;-76
2021/08/19 09:27:13;;;;;;;2.17;0.98;;;;;;;18.98;69.01;100594.38;2605024;54;20030;31
2021/08/19 09:29:42;;;;;;;1.80;1.00;;;;;;;18.97;69.43;100593.53;2630144;36;20023;31
2021/08/19 09:32:17;;;;;;;2.08;0.82;;;;;;;18.94;68.85;100580.47;2624102;36;20090;31
2021/08/19 09:34:49;;;;;;;1.65;0.80;;;;;;;19.07;69.02;100599.13;2623609;36;20058;31
2021/08/19 09:37:20;;;;;;;0.98;0.60;;;;;;;19.08;69.24;100590.25;2629052;36;20055;31
2021/08/19 09:39:58;;;;;;;0.57;0.40;;;;;;;19.10;69.03;100599.78;2609482;54;20106;31
2021/08/19 09:42:45;;;;;;;0.57;0.47;;;;;;;19.06;68.42;100592.09;2630061;36;20057;31
2021/08/19 09:45:24;;;;;;;0.75;0.50;;;;;;;19.12;68.97;100602.34;2587329;54;2004399;31
2021/08/19 09:48:04;;;;;;;0.50;0.30;;;;;;;19.07;69.78;100588.53;2636997;36;20023;31
2021/08/19 09:50:34;;;;;;;0.80;0.50;;;;;;;19.08;69.82;100601.69;2626593;36;20121;31
2021/08/19 09:53:23;;;;;;;0.73;0.40;;;;;;;19.21;69.08;100607.09;2648520;36;20026;31
2021/08/19 09:55:54;;;;;;;0.40;0.38;;;;;;;19.09;69.98;100578.69;2631956;36;20905;31
2021/08/19 09:58:29;;;;;;;0.68;0.30;;;;;;;19.31;69.97;100594.13;2633847;36;20976;31
2021/08/19 10:00:57;;;;;;;2.20;0.70;;;;;;;19.17;70.18;100568.50;2626008;36;20026;31
2021/08/19 10:03:27;;;;;;;0.65;0.50;;;;;;;19.41;70.01;100585.56;2631837;54;20011;-79
2021/08/19 10:05:59;;;;;;;0.77;0.47;;;;;;;19.52;69.51;100579.59;2631359;47;20060;-80
2021/08/19 10:08:32;;;;;;;1.38;0.50;;;;;;;19.64;69.57;100588.59;2649451;36;20063;-77
2021/08/19 10:11:03;;;;;;;1.15;0.57;;;;;;;19.75;69.97;100580.84;2639954;36;20877;31
2021/08/19 10:13:35;;;;;;;0.82;0.45;;;;;;;19.88;69.78;100575.63;2631052;54;20038;-78
2021/08/19 10:16:10;;;;;;;1.30;0.77;;;;;;;20.05;69.47;100575.38;2649324;36;20038;-77
2021/08/19 10:18:42;;;;;;;0.60;0.40;;;;;;;20.18;69.46;100572.81;2651847;36;20705;-78
2021/08/19 10:21:20;;;;;;;0.70;0.45;;;;;;;20.34;68.29;100573.50;2649311;36;20007;-77
2021/08/19 10:24:01;;;;;;;0.80;0.50;;;;;;;20.46;68.76;100572.72;2594606;54;2004739;-78
2021/08/19 10:26:29;;;;;;;1.67;0.80;;;;;;;20.61;68.72;100565.56;2631507;36;20014;-77
2021/08/19 10:29:00;;;;;;;0.43;0.40;;;;;;;20.81;68.34;100568.69;2649094;36;20022;-78
2021/08/19 10:31:48;;;;;;;1.67;1.02;;;;;;;21.08;67.89;100569.44;2630681;46;20018;-78
2021/08/19 10:34:55;;;;;;;1.02;0.60;;;;;;;21.23;67.63;100562.22;2594065;54;2004340;-78
2021/08/19 10:37:41;;;;;;;;;;;;;;;21.41;66.96;100563.66;2643426;36;2004843;-78
2021/08/19 10:40:24;;;;;;;1.00;0.52;;;;;;;21.50;66.37;100560.34;2649201;36;20489;-78
2021/08/19 10:43:00;;;;;;;1.13;0.60;;;;;;;21.53;65.89;100563.72;2651953;36;20938;-78
2021/08/19 10:45:28;;;;;;;0.55;0.45;;;;;;;21.49;66.57;100563.97;2649195;36;20047;-77
2021/08/19 10:48:00;;;;;;;1.08;0.60;;;;;;;21.53;66.05;100561.94;2630186;46;20015;-78
2021/08/19 10:50:42;;;;;;;1.98;0.70;;;;;;;21.55;65.97;100561.84;2630378;54;20612;-77
2021/08/19 10:53:10;;;;;;;0.85;0.57;;;;;;;21.51;65.69;100555.88;2640992;36;20071;31
2021/08/19 10:55:43;;;;;;;0.75;0.50;;;;;;;21.53;65.68;100547.78;2631221;54;20038;-78
2021/08/19 10:58:35;;;;;;;2.03;1.10;;;;;;;21.60;65.38;100555.22;2684642;36;20034;-78
2021/08/19 11:01:23;;;;;;;1.38;0.80;;;;;;;21.64;65.06;100561.16;2667199;36;20031;-78
2021/08/19 11:03:52;;;;;;;1.73;1.00;;;;;;;21.62;64.66;100563.09;2648281;36;20034;-79
2021/08/19 11:06:44;;;;;;;0.70;0.52;;;;;;;21.56;65.04;100547.59;2648792;36;20027;-81
2021/08/19 11:09:15;;;;;;;0.57;0.50;;;;;;;21.77;64.99;100551.38;2640135;36;2004385;-80
2021/08/19 11:11:43;;;;;;;1.45;0.90;;;;;;;21.79;64.62;100560.06;2648388;36;20015;-77
2021/08/19 11:14:21;;;;;;;1.20;0.88;;;;;;;21.91;64.18;100553.88;2648100;36;22182;-77
2021/08/19 11:16:57;;;;;;;0.93;0.63;;;;;;;22.04;64.18;100559.13;2663000;36;20553;-78
2021/08/19 11:19:28;;;;;;;1.13;0.50;;;;;;;22.07;64.32;100553.63;2695921;36;2004384;-77
2021/08/19 11:22:02;;;;;;;1.67;0.90;;;;;;;22.18;63.58;100563.50;2729114;36;20045;-77
2021/08/19 11:24:31;;;;;;;0.88;0.60;;;;;;;22.18;63.94;100548.38;2652782;36;20537;-78
2021/08/19 11:27:08;;;;;;;1.13;0.60;;;;;;;22.34;63.98;100555.22;2629926;36;20042;-78
2021/08/19 11:29:44;;;;;;;1.00;0.60;;;;;;;22.35;63.83;100541.81;2655025;36;20027;-78
2021/08/19 11:32:30;;;;;;;1.00;0.70;;;;;;;22.27;63.34;100533.56;2612391;31;2004144;-78
2021/08/19 11:34:59;;;;;;;1.70;0.80;;;;;;;22.46;63.49;100549.84;2648282;36;20023;-78
2021/08/19 11:37:33;;;;;;;0.57;0.40;;;;;;;22.55;62.69;100556.28;2630313;36;20021;-78
2021/08/19 11:40:01;;;;;;;0.80;0.60;;;;;;;22.48;62.72;100558.56;2629668;54;20035;-77
2021/08/19 11:42:33;;;;;;;0.98;0.55;;;;;;;22.58;62.45;100557.88;2640857;36;20034;-78
2021/08/19 11:47:44;;;;;;;0.70;0.50;;;;;;;22.47;63.07;100546.22;2648233;36;20013;-77
2021/08/19 11:50:14;;;;;;;1.17;0.77;;;;;;;22.61;62.69;100552.31;2648526;36;20711;-77
2021/08/19 11:52:42;;;;;;;0.57;0.45;;;;;;;22.62;62.96;100556.69;2648542;36;20018;-78
2021/08/19 11:55:29;;;;;;;0.52;0.40;;;;;;;22.81;63.92;100554.34;2629912;54;20035;-78
2021/08/19 11:58:18;;;;;;;1.38;0.52;;;;;;;23.12;63.55;100546.69;2585555;36;2004422;-77
2021/08/19 12:00:55;;;;;;;1.67;0.63;;;;;;;23.36;63.12;100555.41;2654640;36;2004513;-78
2021/08/19 12:03:23;;;;;;;1.05;0.70;;;;;;;23.50;61.23;100547.16;2669564;36;20621;-78
2021/08/19 12:06:24;;;;;;;0.98;0.50;;;;;;;23.87;62.47;100548.75;2678433;36;20027;-78
2021/08/19 12:08:57;;;;;;;0.60;0.40;;;;;;;23.90;60.90;100538.69;2610910;36;2004195;-78
2021/08/19 12:11:30;;;;;;;1.17;0.60;;;;;;;24.05;59.78;100536.59;2633091;36;2004606;-77
2021/08/19 12:14:08;;;;;;;0.70;0.50;;;;;;;24.07;60.40;100532.81;2670125;36;20041;-78
2021/08/19 12:16:37;;;;;;;0.65;0.43;;;;;;;24.22;60.65;100543.19;2658135;36;20091;-78
2021/08/19 12:19:12;;;;;;;1.15;0.65;;;;;;;24.30;59.33;100540.75;2647519;36;20034;-78
2021/08/19 12:21:41;;;;;;;0.85;0.57;;;;;;;24.41;59.60;100546.06;2654954;36;20052;-77
2021/08/19 12:24:17;;;;;;;0.55;0.47;;;;;;;24.56;59.99;100557.31;2643989;36;20030;-78
2021/08/19 12:27:05;;;;;;;0.93;0.57;;;;;;;24.68;59.79;100550.06;2645921;36;20426;-79
2021/08/19 12:29:38;;;;;;;0.80;0.60;;;;;;;24.69;59.30;100546.47;2600433;36;2004411;-78
2021/08/19 12:32:22;;;;;;;0.90;0.50;;;;;;;24.79;59.64;100548.22;2644552;36;20052;-78